Wetterdaten: Woche 20.12.10 - 26.12.10 (KW51)
Datum Zeit Temp. A. Feuchte A. Luftdruck Regen Wind Richtung Taupunkt Windchill Windben
20.12.2010 00:00 5,9 C 82 % 997,3 hPa 0,0 l/m 46,7 km/h W-SW 3,1 C -8,2 C 25,9 km/h
20.12.2010 01:00 5,9 C 84 % 998,6 hPa 0,0 l/m 37,6 km/h SW 3,4 C -6,8 C 20,9 km/h
20.12.2010 02:00 5,9 C 81 % 999,8 hPa 0,0 l/m 28,5 km/h SW 2,9 C -4,7 C 15,8 km/h
20.12.2010 03:00 5,8 C 80 % 1000,2 hPa 0,0 l/m 35,6 km/h W-SW 2,6 C -6,5 C 19,8 km/h
20.12.2010 04:00 5,6 C 80 % 1000,1 hPa 0,0 l/m 22,7 km/h S-SW 2,4 C -3,4 C 12,6 km/h
20.12.2010 05:00 5,3 C 82 % 1000,5 hPa 0,0 l/m 8,4 km/h W-SW 2,5 C 3,6 C 4,7 km/h
20.12.2010 06:00 5,1 C 82 % 1000,6 hPa 0,0 l/m 7,8 km/h S 2,3 C 3,9 C 4,3 km/h
20.12.2010 07:00 3,7 C 87 % 1000,3 hPa 0,4 l/m 7,8 km/h S 1,7 C 2,4 C 4,3 km/h
20.12.2010 08:00 3,0 C 88 % 999,9 hPa 0,7 l/m 1,9 km/h SO 1,2 C 3,0 C 1,1 km/h
20.12.2010 09:00 2,9 C 88 % 999,5 hPa 1,8 l/m 0,0 km/h SO 1,1 C 2,9 C 0,0 km/h
20.12.2010 10:00 3,0 C 88 % 999,5 hPa 1,1 l/m 0,0 km/h O-SO 1,2 C 3,0 C 0,0 km/h
20.12.2010 11:00 3,8 C 87 % 999,5 hPa 1,1 l/m 0,0 km/h W-SW 1,8 C 3,8 C 0,0 km/h
20.12.2010 12:00 5,7 C 88 % 999,4 hPa 0,0 l/m 14,3 km/h SW 3,9 C 0,3 C 7,9 km/h
20.12.2010 13:00 8,1 C 81 % 999,6 hPa 0,0 l/m 20,7 km/h S-SW 5,0 C 0,6 C 11,5 km/h
20.12.2010 14:00 8,1 C 82 % 1000,4 hPa 0,0 l/m 22,7 km/h S-SW 5,2 C -0,1 C 12,6 km/h
20.12.2010 15:00 8,4 C 80 % 1001,5 hPa 0,0 l/m 24,6 km/h S-SW 5,2 C -0,2 C 13,7 km/h
20.12.2010 16:00 8,4 C 80 % 1002,0 hPa 0,0 l/m 41,5 km/h N-NW 5,2 C -3,7 C 23,0 km/h
20.12.2010 17:00 5,4 C 86 % 1003,4 hPa 0,4 l/m 0,0 km/h NW 3,3 C 5,4 C 0,0 km/h
20.12.2010 18:00 4,4 C 88 % 1004,4 hPa 1,1 l/m 0,0 km/h S-SO 2,6 C 4,4 C 0,0 km/h
20.12.2010 19:00 4,1 C 87 % 1004,6 hPa 0,4 l/m 0,0 km/h NO 2,1 C 4,1 C 0,0 km/h
20.12.2010 20:00 4,4 C 87 % 1004,6 hPa 0,4 l/m 0,0 km/h NO 2,4 C 4,4 C 0,0 km/h
20.12.2010 21:00 4,6 C 87 % 1004,7 hPa 0,0 l/m 0,0 km/h N-NO 2,6 C 4,6 C 0,0 km/h
20.12.2010 22:00 3,5 C 87 % 1004,9 hPa 0,0 l/m 0,0 km/h SO 1,5 C 3,5 C 0,0 km/h
20.12.2010 23:00 4,1 C 86 % 1004,9 hPa 0,4 l/m 0,0 km/h S-SW 2,0 C 4,1 C 0,0 km/h
21.12.2010 00:00 5,8 C 86 % 1004,5 hPa 0,0 l/m 2,6 km/h NO 3,6 C 5,8 C 1,4 km/h
21.12.2010 01:00 5,9 C 87 % 1004,0 hPa 0,0 l/m 0,0 km/h NO 3,9 C 5,9 C 0,0 km/h
21.12.2010 02:00 5,5 C 87 % 1003,5 hPa 0,0 l/m 0,0 km/h NO 3,5 C 5,5 C 0,0 km/h
21.12.2010 03:00 5,2 C 87 % 1003,0 hPa 0,0 l/m 0,6 km/h N-NO 3,2 C 5,2 C 0,4 km/h
21.12.2010 04:00 4,9 C 87 % 1003,1 hPa 0,0 l/m 0,0 km/h N-NO 2,9 C 4,9 C 0,0 km/h
21.12.2010 05:00 4,8 C 86 % 1002,9 hPa 0,0 l/m 0,0 km/h O 2,7 C 4,8 C 0,0 km/h
21.12.2010 06:00 3,9 C 87 % 1002,6 hPa 0,0 l/m 0,0 km/h O-NO 1,9 C 3,9 C 0,0 km/h
21.12.2010 07:00 3,1 C 87 % 1002,6 hPa 0,0 l/m 0,0 km/h O-SO 1,2 C 3,1 C 0,0 km/h
21.12.2010 08:00 2,5 C 87 % 1002,9 hPa 0,0 l/m 0,0 km/h O-NO 0,6 C 2,5 C 0,0 km/h
21.12.2010 09:00 3,1 C 87 % 1003,0 hPa 0,0 l/m 0,0 km/h S-SO 1,2 C 3,1 C 0,0 km/h
21.12.2010 10:00 4,6 C 86 % 1003,4 hPa 0,0 l/m 0,0 km/h NO 2,5 C 4,6 C 0,0 km/h
21.12.2010 11:00 6,8 C 88 % 1003,3 hPa 0,0 l/m 0,0 km/h SO 5,0 C 6,8 C 0,0 km/h
21.12.2010 12:00 7,9 C 88 % 1002,6 hPa 0,0 l/m 0,0 km/h W-SW 6,0 C 7,9 C 0,0 km/h
21.12.2010 13:00 9,5 C 80 % 1002,3 hPa 0,0 l/m 0,0 km/h S-SW 6,2 C 9,5 C 0,0 km/h
21.12.2010 14:00 7,8 C 84 % 1002,6 hPa 0,0 l/m 0,0 km/h SO 5,3 C 7,8 C 0,0 km/h
21.12.2010 15:00 6,8 C 87 % 1002,6 hPa 0,4 l/m 0,0 km/h SO 4,8 C 6,8 C 0,0 km/h
21.12.2010 16:00 6,4 C 88 % 1002,4 hPa 0,4 l/m 0,0 km/h SO 4,6 C 6,4 C 0,0 km/h
21.12.2010 17:00 5,8 C 88 % 1002,4 hPa 0,0 l/m 0,0 km/h O-NO 4,0 C 5,8 C 0,0 km/h
21.12.2010 18:00 5,5 C 87 % 1002,3 hPa 0,4 l/m 0,0 km/h NO 3,5 C 5,5 C 0,0 km/h
21.12.2010 19:00 5,3 C 87 % 1001,8 hPa 0,0 l/m 0,0 km/h SO 3,3 C 5,3 C 0,0 km/h
21.12.2010 20:00 5,1 C 87 % 1001,6 hPa 0,4 l/m 0,0 km/h NO 3,1 C 5,1 C 0,0 km/h
21.12.2010 21:00 4,9 C 87 % 1001,5 hPa 0,0 l/m 0,0 km/h NO 2,9 C 4,9 C 0,0 km/h
21.12.2010 22:00 4,8 C 87 % 1001,0 hPa 0,0 l/m 0,0 km/h S 2,8 C 4,8 C 0,0 km/h
21.12.2010 23:00 4,5 C 87 % 1000,6 hPa 0,0 l/m 0,0 km/h SW 2,5 C 4,5 C 0,0 km/h
22.12.2010 00:00 4,8 C 86 % 1000,5 hPa 0,4 l/m 0,0 km/h SW 2,7 C 4,8 C 0,0 km/h
22.12.2010 01:00 4,8 C 86 % 1000,5 hPa 1,1 l/m 0,0 km/h S-SO 2,7 C 4,8 C 0,0 km/h
22.12.2010 02:00 4,6 C 86 % 1000,1 hPa 0,7 l/m 0,0 km/h SO 2,5 C 4,6 C 0,0 km/h
22.12.2010 03:00 4,4 C 86 % 1000,0 hPa 0,7 l/m 0,0 km/h SO 2,3 C 4,4 C 0,0 km/h
22.12.2010 04:00 4,4 C 86 % 999,7 hPa 0,0 l/m 0,0 km/h O 2,3 C 4,4 C 0,0 km/h
22.12.2010 05:00 4,5 C 86 % 999,4 hPa 0,4 l/m 0,0 km/h O 2,4 C 4,5 C 0,0 km/h
22.12.2010 06:00 4,2 C 86 % 999,2 hPa 0,0 l/m 0,0 km/h O 2,1 C 4,2 C 0,0 km/h
22.12.2010 07:00 4,2 C 86 % 999,6 hPa 0,0 l/m 0,0 km/h SO 2,1 C 4,2 C 0,0 km/h
22.12.2010 08:00 4,4 C 87 % 999,8 hPa 0,4 l/m 0,0 km/h O-SO 2,4 C 4,4 C 0,0 km/h
22.12.2010 09:00 4,9 C 86 % 999,9 hPa 0,0 l/m 0,0 km/h O-SO 2,8 C 4,9 C 0,0 km/h
22.12.2010 10:00 6,3 C 86 % 1000,0 hPa 0,0 l/m 0,0 km/h N-NO 4,1 C 6,3 C 0,0 km/h
22.12.2010 11:00 7,6 C 86 % 999,7 hPa 0,0 l/m 0,0 km/h W-NW 5,4 C 7,6 C 0,0 km/h
22.12.2010 12:00 7,8 C 89 % 999,2 hPa 0,0 l/m 0,0 km/h N-NO 6,1 C 7,8 C 0,0 km/h
22.12.2010 13:00 7,3 C 88 % 998,9 hPa 0,4 l/m 0,0 km/h NW 5,4 C 7,3 C 0,0 km/h
22.12.2010 14:00 7,7 C 88 % 998,6 hPa 0,0 l/m 0,0 km/h N-NW 5,8 C 7,7 C 0,0 km/h
22.12.2010 15:00 7,6 C 88 % 998,4 hPa 0,0 l/m 0,0 km/h N-NO 5,7 C 7,6 C 0,0 km/h
22.12.2010 16:00 7,1 C 88 % 998,3 hPa 0,0 l/m 0,0 km/h N 5,2 C 7,1 C 0,0 km/h
22.12.2010 17:00 6,4 C 87 % 997,9 hPa 0,0 l/m 0,0 km/h W-SW 4,4 C 6,4 C 0,0 km/h
22.12.2010 18:00 5,9 C 87 % 998,1 hPa 0,0 l/m 0,0 km/h SW 3,9 C 5,9 C 0,0 km/h
22.12.2010 19:00 5,8 C 87 % 998,2 hPa 0,0 l/m 0,0 km/h S 3,8 C 5,8 C 0,0 km/h
22.12.2010 20:00 5,1 C 87 % 998,0 hPa 0,0 l/m 0,0 km/h W-NW 3,1 C 5,1 C 0,0 km/h
22.12.2010 21:00 5,3 C 87 % 998,1 hPa 0,0 l/m 9,7 km/h SW 3,3 C 2,6 C 5,4 km/h
22.12.2010 22:00 4,9 C 86 % 997,0 hPa 0,0 l/m 0,0 km/h W 2,8 C 4,9 C 0,0 km/h
22.12.2010 23:00 4,8 C 86 % 997,5 hPa 0,0 l/m 0,0 km/h W 2,7 C 4,8 C 0,0 km/h
23.12.2010 00:00 4,8 C 86 % 997,5 hPa 0,0 l/m 0,0 km/h W 2,7 C 4,8 C 0,0 km/h
23.12.2010 01:00 4,8 C 86 % 997,8 hPa 0,0 l/m 0,0 km/h O-SO 2,7 C 4,8 C 0,0 km/h
23.12.2010 02:00 4,8 C 86 % 996,8 hPa 0,0 l/m 1,9 km/h SO 2,7 C 4,8 C 1,1 km/h
23.12.2010 03:00 4,4 C 85 % 996,7 hPa 0,0 l/m 0,6 km/h W-NW 2,1 C 4,4 C 0,4 km/h
23.12.2010 04:00 4,2 C 86 % 995,6 hPa 0,0 l/m 0,0 km/h W-NW 2,1 C 4,2 C 0,0 km/h
23.12.2010 05:00 4,1 C 86 % 995,2 hPa 0,0 l/m 0,0 km/h W-SW 2,0 C 4,1 C 0,0 km/h
23.12.2010 06:00 3,6 C 86 % 994,9 hPa 0,0 l/m 0,0 km/h N-NW 1,5 C 3,6 C 0,0 km/h
23.12.2010 07:00 3,8 C 86 % 994,3 hPa 0,0 l/m 0,0 km/h W 1,7 C 3,8 C 0,0 km/h
23.12.2010 08:00 3,7 C 86 % 994,8 hPa 0,0 l/m 0,0 km/h W 1,6 C 3,7 C 0,0 km/h
23.12.2010 09:00 3,8 C 86 % 994,9 hPa 0,0 l/m 0,0 km/h W 1,7 C 3,8 C 0,0 km/h
23.12.2010 10:00 4,4 C 85 % 995,1 hPa 0,0 l/m 0,0 km/h W 2,1 C 4,4 C 0,0 km/h
23.12.2010 11:00 5,4 C 85 % 994,5 hPa 0,0 l/m 0,0 km/h W-NW 3,1 C 5,4 C 0,0 km/h
23.12.2010 12:00 5,7 C 85 % 994,0 hPa 0,0 l/m 0,6 km/h N-NW 3,4 C 5,7 C 0,4 km/h
23.12.2010 13:00 5,3 C 86 % 993,7 hPa 0,0 l/m 1,3 km/h W-NW 3,2 C 5,3 C 0,7 km/h
23.12.2010 14:00 4,7 C 87 % 994,1 hPa 0,0 l/m 6,5 km/h W-NW 2,7 C 4,6 C 3,6 km/h
23.12.2010 15:00 4,4 C 86 % 994,4 hPa 0,0 l/m 0,0 km/h W 2,3 C 4,4 C 0,0 km/h
23.12.2010 16:00 4,4 C 86 % 994,3 hPa 0,0 l/m 0,0 km/h W 2,3 C 4,4 C 0,0 km/h
23.12.2010 17:00 4,2 C 86 % 993,9 hPa 0,0 l/m 0,0 km/h N-NW 2,1 C 4,2 C 0,0 km/h
23.12.2010 18:00 4,2 C 86 % 994,0 hPa 0,0 l/m 0,0 km/h W-NW 2,1 C 4,2 C 0,0 km/h
23.12.2010 19:00 3,9 C 86 % 994,0 hPa 0,0 l/m 0,0 km/h W-NW 1,8 C 3,9 C 0,0 km/h
23.12.2010 20:00 3,8 C 86 % 994,1 hPa 0,0 l/m 0,0 km/h NW 1,7 C 3,8 C 0,0 km/h
23.12.2010 21:00 3,8 C 86 % 994,0 hPa 0,0 l/m 0,0 km/h W-NW 1,7 C 3,8 C 0,0 km/h
23.12.2010 22:00 3,7 C 86 % 994,5 hPa 0,0 l/m 1,3 km/h W-NW 1,6 C 3,7 C 0,7 km/h
23.12.2010 23:00 3,4 C 86 % 994,8 hPa 0,0 l/m 0,0 km/h W-NW 1,3 C 3,4 C 0,0 km/h
24.12.2010 00:00 3,3 C 86 % 994,6 hPa 0,4 l/m 0,0 km/h W-NW 1,2 C 3,3 C 0,0 km/h
24.12.2010 01:00 2,9 C 86 % 994,6 hPa 0,0 l/m 0,0 km/h N-NO 0,8 C 2,9 C 0,0 km/h
24.12.2010 02:00 2,7 C 86 % 994,7 hPa 0,0 l/m 0,0 km/h N-NW 0,6 C 2,7 C 0,0 km/h
24.12.2010 03:00 2,4 C 86 % 994,8 hPa 0,0 l/m 0,0 km/h W-NW 0,3 C 2,4 C 0,0 km/h
24.12.2010 04:00 2,3 C 86 % 994,9 hPa 0,0 l/m 0,0 km/h W-NW 0,2 C 2,3 C 0,0 km/h
24.12.2010 05:00 1,9 C 86 % 995,2 hPa 0,0 l/m 2,6 km/h NW -0,2 C 1,9 C 1,4 km/h
24.12.2010 06:00 1,5 C 86 % 995,7 hPa 0,4 l/m 1,3 km/h W-NW -0,6 C 1,5 C 0,7 km/h
24.12.2010 07:00 1,1 C 86 % 996,2 hPa 0,4 l/m 0,0 km/h W -1,0 C 1,1 C 0,0 km/h
24.12.2010 08:00 0,4 C 87 % 996,8 hPa 0,0 l/m 0,0 km/h NW -1,5 C 0,4 C 0,0 km/h
24.12.2010 09:00 0,3 C 87 % 997,7 hPa 0,0 l/m 0,0 km/h NW -1,6 C 0,3 C 0,0 km/h
24.12.2010 10:00 0,4 C 87 % 998,6 hPa 0,0 l/m 0,0 km/h W-NW -1,5 C 0,4 C 0,0 km/h
24.12.2010 11:00 0,6 C 87 % 999,1 hPa 0,0 l/m 0,0 km/h W-NW -1,3 C 0,6 C 0,0 km/h
24.12.2010 12:00 0,9 C 86 % 999,5 hPa 0,0 l/m 0,0 km/h W-NW -1,2 C 0,9 C 0,0 km/h
24.12.2010 13:00 0,9 C 87 % 999,7 hPa 0,0 l/m 0,0 km/h W-NW -1,0 C 0,9 C 0,0 km/h
24.12.2010 14:00 0,7 C 87 % 1000,0 hPa 0,0 l/m 0,0 km/h W-NW -1,2 C 0,7 C 0,0 km/h
24.12.2010 15:00 0,3 C 87 % 1001,0 hPa 0,0 l/m 0,0 km/h W-NW -1,6 C 0,3 C 0,0 km/h
24.12.2010 16:00 -0,1 C 88 % 1001,7 hPa 0,0 l/m 0,0 km/h W-NW -1,8 C -0,1 C 0,0 km/h
24.12.2010 17:00 -0,5 C 88 % 1002,4 hPa 0,0 l/m 0,0 km/h W-NW -2,2 C -0,5 C 0,0 km/h
24.12.2010 18:00 -0,9 C 88 % 1003,1 hPa 0,0 l/m 0,0 km/h W-NW -2,6 C -0,9 C 0,0 km/h
24.12.2010 19:00 -1,1 C 88 % 1003,9 hPa 0,0 l/m 0,0 km/h W-NW -2,8 C -1,1 C 0,0 km/h
24.12.2010 20:00 -1,1 C 88 % 1004,5 hPa 0,0 l/m 0,0 km/h W-NW -2,8 C -1,1 C 0,0 km/h
24.12.2010 21:00 -1,5 C 88 % 1005,2 hPa 0,0 l/m 0,0 km/h W-NW -3,2 C -1,5 C 0,0 km/h
24.12.2010 22:00 -1,7 C 88 % 1005,6 hPa 0,0 l/m 0,0 km/h W-NW -3,4 C -1,7 C 0,0 km/h
24.12.2010 23:00 -2,1 C 89 % 1006,3 hPa 0,0 l/m 0,0 km/h W-NW -3,7 C -2,1 C 0,0 km/h
25.12.2010 00:00 -2,2 C 89 % 1006,9 hPa 0,0 l/m 0,0 km/h W-NW -3,8 C -2,2 C 0,0 km/h
25.12.2010 01:00 -2,2 C 89 % 1007,5 hPa 0,0 l/m 0,0 km/h W-NW -3,8 C -2,2 C 0,0 km/h
25.12.2010 02:00 -2,4 C 89 % 1008,2 hPa 0,0 l/m 0,0 km/h W-NW -4,0 C -2,4 C 0,0 km/h
25.12.2010 03:00 -2,7 C 89 % 1008,8 hPa 0,0 l/m 0,0 km/h W-NW -4,3 C -2,7 C 0,0 km/h
25.12.2010 04:00 -2,9 C 89 % 1009,3 hPa 0,0 l/m 0,0 km/h W-NW -4,5 C -2,9 C 0,0 km/h
25.12.2010 05:00 -3,1 C 89 % 1010,0 hPa 0,0 l/m 0,0 km/h W-NW -4,6 C -3,1 C 0,0 km/h
25.12.2010 06:00 -3,2 C 90 % 1010,8 hPa 0,0 l/m 0,0 km/h W-NW -4,6 C -3,2 C 0,0 km/h
25.12.2010 07:00 -3,4 C 90 % 1011,9 hPa 0,0 l/m 0,0 km/h W-NW -4,8 C -3,4 C 0,0 km/h
25.12.2010 08:00 -3,6 C 90 % 1012,6 hPa 0,0 l/m 0,0 km/h W-NW -5,0 C -3,6 C 0,0 km/h
25.12.2010 09:00 -3,1 C 90 % 1013,6 hPa 0,0 l/m 0,0 km/h W-NW -4,5 C -3,1 C 0,0 km/h
25.12.2010 10:00 -2,4 C 90 % 1014,5 hPa 0,0 l/m 0,0 km/h W-NW -3,8 C -2,4 C 0,0 km/h
25.12.2010 11:00 -1,3 C 88 % 1015,2 hPa 0,0 l/m 0,0 km/h W-NW -3,0 C -1,3 C 0,0 km/h
25.12.2010 12:00 -1,2 C 85 % 1015,7 hPa 0,0 l/m 0,0 km/h W-NW -3,4 C -1,2 C 0,0 km/h
25.12.2010 13:00 -1,6 C 85 % 1016,1 hPa 0,0 l/m 0,0 km/h W-NW -3,8 C -1,6 C 0,0 km/h
25.12.2010 14:00 -1,7 C 85 % 1016,5 hPa 0,0 l/m 0,0 km/h W-NW -3,9 C -1,7 C 0,0 km/h
25.12.2010 15:00 -2,4 C 86 % 1017,5 hPa 0,0 l/m 0,0 km/h W-NW -4,4 C -2,4 C 0,0 km/h
25.12.2010 16:00 -3,1 C 87 % 1018,4 hPa 0,0 l/m 0,0 km/h W-NW -4,9 C -3,1 C 0,0 km/h
25.12.2010 17:00 -3,6 C 88 % 1019,2 hPa 0,0 l/m 0,0 km/h N-NO -5,3 C -3,6 C 0,0 km/h
25.12.2010 18:00 -4,1 C 88 % 1019,9 hPa 0,0 l/m 1,3 km/h N-NO -5,8 C -4,1 C 0,7 km/h
25.12.2010 19:00 -4,7 C 89 % 1020,6 hPa 0,0 l/m 0,0 km/h N-NO -6,2 C -4,7 C 0,0 km/h
25.12.2010 20:00 -5,4 C 89 % 1021,0 hPa 0,0 l/m 0,0 km/h N-NO -6,9 C -5,4 C 0,0 km/h
25.12.2010 21:00 -6,9 C 89 % 1022,2 hPa 0,0 l/m 0,0 km/h N-NW -8,4 C -6,9 C 0,0 km/h
25.12.2010 22:00 -7,2 C 90 % 1022,6 hPa 0,0 l/m 0,0 km/h O -8,6 C -7,2 C 0,0 km/h
25.12.2010 23:00 -7,9 C 90 % 1023,1 hPa 0,0 l/m 0,0 km/h O-NO -9,2 C -7,9 C 0,0 km/h
26.12.2010 00:00 -9,8 C 89 % 1022,9 hPa 0,0 l/m 0,0 km/h O-NO -11,3 C -9,8 C 0,0 km/h
26.12.2010 01:00 -10,6 C 89 % 1023,3 hPa 0,0 l/m 0,0 km/h NO -12,1 C -10,6 C 0,0 km/h
26.12.2010 02:00 -9,6 C 89 % 1023,9 hPa 0,0 l/m 0,0 km/h O-NO -11,1 C -9,6 C 0,0 km/h
26.12.2010 03:00 -11,4 C 89 % 1024,2 hPa 0,0 l/m 0,0 km/h O-NO -12,8 C -11,4 C 0,0 km/h
26.12.2010 04:00 -13,6 C 88 % 1024,7 hPa 0,0 l/m 0,0 km/h O-NO -15,1 C -13,6 C 0,0 km/h
26.12.2010 05:00 -15,6 C 88 % 1024,8 hPa 0,0 l/m 0,0 km/h O-NO -17,1 C -15,6 C 0,0 km/h
26.12.2010 06:00 -15,2 C 88 % 1025,0 hPa 0,0 l/m 0,0 km/h O-NO -16,7 C -15,2 C 0,0 km/h
26.12.2010 07:00 -14,1 C 88 % 1025,3 hPa 0,0 l/m 0,0 km/h SO -15,6 C -14,1 C 0,0 km/h
26.12.2010 08:00 -14,5 C 88 % 1026,1 hPa 0,0 l/m 0,0 km/h SO -16,0 C -14,5 C 0,0 km/h
26.12.2010 09:00 -7,8 C 90 % 1026,7 hPa 0,0 l/m 0,0 km/h SO -9,1 C -7,8 C 0,0 km/h
26.12.2010 10:00 -7,6 C 90 % 1026,9 hPa 0,0 l/m 0,0 km/h SO -8,9 C -7,6 C 0,0 km/h
26.12.2010 11:00 -4,6 C 90 % 1026,0 hPa 0,0 l/m 0,0 km/h SO -6,0 C -4,6 C 0,0 km/h
26.12.2010 12:00 -1,5 C 80 % 1026,0 hPa 0,0 l/m 0,0 km/h SO -4,5 C -1,5 C 0,0 km/h
26.12.2010 13:00 -2,5 C 81 % 1025,3 hPa 0,0 l/m 0,0 km/h SO -5,3 C -2,5 C 0,0 km/h
26.12.2010 14:00 -0,4 C 72 % 1025,0 hPa 0,0 l/m 0,0 km/h SO -4,8 C -0,4 C 0,0 km/h
26.12.2010 15:00 -1,0 C 71 % 1024,6 hPa 0,0 l/m 0,0 km/h SO -5,6 C -1,0 C 0,0 km/h
26.12.2010 16:00 -4,5 C 76 % 1024,8 hPa 0,0 l/m 0,0 km/h SO -8,1 C -4,5 C 0,0 km/h
26.12.2010 17:00 -10,2 C 85 % 1025,2 hPa 0,0 l/m 0,0 km/h SO -12,2 C -10,2 C 0,0 km/h
26.12.2010 18:00 -9,5 C 87 % 1024,8 hPa 0,0 l/m 0,0 km/h SO -11,2 C -9,5 C 0,0 km/h
26.12.2010 19:00 -10,1 C 88 % 1024,9 hPa 0,0 l/m 0,0 km/h SO -11,7 C -10,1 C 0,0 km/h
26.12.2010 20:00 -8,4 C 89 % 1025,3 hPa 0,0 l/m 0,0 km/h SO -9,9 C -8,4 C 0,0 km/h
26.12.2010 21:00 -7,0 C 89 % 1025,2 hPa 0,0 l/m 0,0 km/h SO -8,5 C -7,0 C 0,0 km/h
26.12.2010 22:00 -6,1 C 89 % 1024,9 hPa 0,0 l/m 0,0 km/h SO -7,6 C -6,1 C 0,0 km/h
26.12.2010 23:00 -5,4 C 89 % 1024,9 hPa 0,0 l/m 0,0 km/h SO -6,9 C -5,4 C 0,0 km/h
Min-Datum _ 26.12.10 26.12.10 23.12.10 - 20.12.10 - 26.12.10 26.12.10 20.12.10
_ Min-Zeit 05:30 15:30 13:30 - 09:30 - 05:30 05:30 09:30
Minimum _ -15,6 C 71 % 993,7 hPa - 0,0 km/h - -17,1 C -15,6 C 0,0 km/h
Max-Datum _ 21.12.10 25.12.10 26.12.10 20.12.10 20.12.10 - 21.12.10 21.12.10 20.12.10
_ Max-Zeit 13:30 06:30 10:30 09:30 00:30 - 13:30 13:30 00:30
Maximum _ 9,5 C 90 % 1026,9 hPa 1,8 l/m 46,7 km/h
W-SW
- 6,2 C 9,5 C 25,9 km/h
W-SW
Durchschnitt _ 1,3 C 86 % 1005,3 hPa #13,9 l/m 2,1 km/h W-NW -0,7 C 0,7 C 1,2 km/h